Time;durP1;ratioP1;P1;durP2;ratioP2;P2;SDS_P1;SDS_P2;PMS_P1;PMS_P2;Temp;Humidity;BMP_temperature;BMP_pressure;BME280_temperature;BME280_humidity;BME280_pressure;Samples;Min_cycle;Max_cycle;Signal;HPM_P1;HPM_P2
2022/09/24 00:00:51;;;;;;;7.45;6.32;;;9.10;99.90;;;;;;5055956;28;20052;-74
2022/09/24 00:03:18;;;;;;;10.77;6.60;;;9.10;99.90;;;;;;5065069;28;20418;-74
2022/09/24 00:05:45;;;;;;;7.72;6.70;;;9.00;99.90;;;;;;5060197;28;20028;-75
2022/09/24 00:08:11;;;;;;;7.00;6.28;;;8.60;99.90;;;;;;5058798;28;20024;-73
2022/09/24 00:10:39;;;;;;;6.93;6.28;;;8.80;99.90;;;;;;5060158;28;20021;-74
2022/09/24 00:13:11;;;;;;;6.97;6.10;;;8.90;99.90;;;;;;5057239;28;20017;-75
2022/09/24 00:15:55;;;;;;;7.55;6.75;;;8.80;99.90;;;;;;5063105;28;20021;-75
2022/09/24 00:18:20;;;;;;;7.93;5.90;;;8.80;99.90;;;;;;5062212;28;20037;-74
2022/09/24 00:20:46;;;;;;;7.75;6.32;;;8.90;99.90;;;;;;5062340;28;20432;-75
2022/09/24 00:23:12;;;;;;;7.00;6.10;;;9.00;99.90;;;;;;5064547;28;20028;-75
2022/09/24 00:28:31;;;;;;;6.68;5.90;;;9.00;99.90;;;;;;5066484;28;20081;-74
2022/09/24 00:30:58;;;;;;;8.73;5.85;;;9.00;99.90;;;;;;5061466;28;20044;-75
2022/09/24 00:33:32;;;;;;;6.75;5.93;;;9.10;99.90;;;;;;5062096;28;20059;-74
2022/09/24 00:36:03;;;;;;;7.65;5.68;;;9.10;99.90;;;;;;5071861;28;20013;-75
2022/09/24 00:38:30;;;;;;;6.60;5.57;;;9.10;99.90;;;;;;5062730;28;20214;-75
2022/09/24 00:40:56;;;;;;;9.80;6.13;;;9.30;99.90;;;;;;5066270;28;20111;-74
2022/09/24 00:43:37;;;;;;;6.93;5.85;;;9.40;99.90;;;;;;5065606;28;20104;-74
2022/09/24 00:46:18;;;;;;;5.97;5.38;;;9.40;99.90;;;;;;5064356;28;20024;-74
2022/09/24 00:48:46;;;;;;;6.45;5.60;;;9.30;99.90;;;;;;5068680;28;20017;-74
2022/09/24 00:51:16;;;;;;;9.27;6.45;;;9.30;99.90;;;;;;5058530;28;20013;-74
2022/09/24 00:53:44;;;;;;;8.23;6.00;;;9.30;99.90;;;;;;5068428;28;21300;-74
2022/09/24 00:56:14;;;;;;;6.18;5.57;;;9.20;99.90;;;;;;5057476;28;20066;-75
2022/09/24 00:58:44;;;;;;;7.15;6.13;;;9.20;99.90;;;;;;5067779;28;20095;-75
2022/09/24 01:01:10;;;;;;;6.80;6.00;;;9.30;99.90;;;;;;5064201;28;20028;-75
2022/09/24 01:03:39;;;;;;;6.97;5.53;;;9.30;99.90;;;;;;5063044;28;20497;-75
2022/09/24 01:06:07;;;;;;;7.00;5.88;;;9.40;99.90;;;;;;5060852;28;20417;-74
2022/09/24 01:08:32;;;;;;;6.30;5.70;;;9.50;99.90;;;;;;5065463;28;20036;-75
2022/09/24 01:11:30;;;;;;;6.85;5.75;;;9.40;99.90;;;;;;5059658;28;20032;-74
2022/09/24 01:14:05;;;;;;;7.10;6.03;;;9.40;99.90;;;;;;5056980;28;20095;-73
2022/09/24 01:16:42;;;;;;;7.97;6.63;;;9.40;99.90;;;;;;5067797;28;20028;-73
2022/09/24 01:19:24;;;;;;;9.02;7.20;;;9.30;99.90;;;;;;5057027;28;20103;-75
2022/09/24 01:21:59;;;;;;;7.72;6.90;;;9.20;99.90;;;;;;5060502;28;20036;-75
2022/09/24 01:24:43;;;;;;;8.68;7.88;;;9.30;99.90;;;;;;5054244;28;20021;-74
2022/09/24 01:27:16;;;;;;;7.97;7.28;;;9.10;99.90;;;;;;5067446;28;20025;-73
2022/09/24 01:29:55;;;;;;;8.15;7.35;;;9.10;99.90;;;;;;5058024;28;20020;-74
2022/09/24 01:32:30;;;;;;;8.50;6.85;;;9.00;99.90;;;;;;5067539;28;20033;-73
2022/09/24 01:35:17;;;;;;;7.70;7.03;;;8.70;99.90;;;;;;5072572;28;20082;-74
2022/09/24 01:37:52;;;;;;;8.50;7.70;;;8.80;99.90;;;;;;5065860;28;20113;-76
2022/09/24 01:40:21;;;;;;;8.30;7.60;;;8.80;99.90;;;;;;5058660;28;20025;-74
2022/09/24 01:42:47;;;;;;;8.43;7.53;;;8.80;99.90;;;;;;5059478;28;20556;-74
2022/09/24 01:45:16;;;;;;;8.07;7.28;;;8.90;99.90;;;;;;5065132;28;20036;-75
2022/09/24 01:47:44;;;;;;;8.55;7.72;;;8.90;99.90;;;;;;5064923;28;20499;-75
2022/09/24 01:50:13;;;;;;;8.25;7.50;;;8.80;99.90;;;;;;5061141;28;20028;-75
2022/09/24 01:53:01;;;;;;;8.68;7.78;;;8.80;99.90;;;;;;5059303;28;20116;-75
2022/09/24 01:55:33;;;;;;;8.20;6.88;;;8.90;99.90;;;;;;5061184;28;20024;-76
2022/09/24 01:58:07;;;;;;;8.07;6.85;;;9.00;99.90;;;;;;5064539;28;20025;-76
2022/09/24 02:00:41;;;;;;;7.70;6.75;;;9.00;99.90;;;;;;5066164;28;20024;-73
2022/09/24 02:03:17;;;;;;;7.03;5.80;;;9.00;99.90;;;;;;5072572;28;20025;-74
2022/09/24 02:05:47;;;;;;;9.10;6.13;;;9.10;99.90;;;;;;5057681;28;20182;-74
2022/09/24 02:08:23;;;;;;;9.73;7.15;;;9.10;99.90;;;;;;5060882;28;20025;-74
2022/09/24 02:11:13;;;;;;;7.35;6.65;;;9.00;99.90;;;;;;5065807;28;20014;-74
2022/09/24 02:13:47;;;;;;;8.15;7.45;;;9.10;99.90;;;;;;5065750;28;20029;-74
2022/09/24 02:16:17;;;;;;;8.10;7.30;;;8.90;99.90;;;;;;5061445;28;20029;-74
2022/09/24 02:18:47;;;;;;;7.90;6.97;;;8.90;99.90;;;;;;5058696;28;20111;-74
2022/09/24 02:21:15;;;;;;;7.82;7.03;;;8.90;99.90;;;;;;5062039;28;20028;-73
2022/09/24 02:23:49;;;;;;;8.40;7.60;;;8.80;99.90;;;;;;5064311;28;20051;-73
2022/09/24 02:26:15;;;;;;;8.57;7.70;;;8.80;99.90;;;;;;5050701;28;20112;-74
2022/09/24 02:28:41;;;;;;;10.32;7.32;;;8.80;99.90;;;;;;5069097;28;20119;-74
2022/09/24 02:31:14;;;;;;;7.72;6.93;;;8.90;99.90;;;;;;5060036;28;20049;-74
2022/09/24 02:36:29;;;;;;;9.40;6.88;;;8.90;99.90;;;;;;5081054;28;20023;-76
2022/09/24 02:38:55;;;;;;;8.05;6.82;;;8.80;99.90;;;;;;5061617;28;20025;-75
2022/09/24 02:41:22;;;;;;;7.88;7.18;;;8.70;99.90;;;;;;5066290;28;20032;-76
2022/09/24 02:43:49;;;;;;;9.45;8.02;;;8.70;99.90;;;;;;5070576;28;20129;-75
2022/09/24 02:46:14;;;;;;;8.50;7.70;;;8.70;99.90;;;;;;5057145;28;20036;-75
2022/09/24 02:48:40;;;;;;;8.05;7.25;;;8.40;99.90;;;;;;5061099;28;20398;-74
2022/09/24 02:51:07;;;;;;;8.38;7.57;;;8.40;99.90;;;;;;5065508;28;20024;-74
2022/09/24 02:53:32;;;;;;;8.35;7.40;;;8.30;99.90;;;;;;5050554;28;20021;-76
2022/09/24 02:55:59;;;;;;;10.18;7.47;;;8.30;99.90;;;;;;5054569;28;20040;-76
2022/09/24 02:58:26;;;;;;;10.45;7.85;;;8.20;99.90;;;;;;5061037;28;20028;-76
2022/09/24 03:00:53;;;;;;;7.60;6.88;;;8.20;99.90;;;;;;5065055;28;20122;-76
2022/09/24 03:03:19;;;;;;;10.30;7.55;;;8.30;99.90;;;;;;5061604;28;20016;-75
2022/09/24 03:05:45;;;;;;;7.88;7.10;;;8.20;99.90;;;;;;5081740;22;20085;-74
2022/09/24 03:08:11;;;;;;;7.85;7.15;;;8.20;99.90;;;;;;5090845;28;20032;-74
2022/09/24 03:10:38;;;;;;;8.75;7.85;;;8.30;99.90;;;;;;5080743;28;20090;-73
2022/09/24 03:13:03;;;;;;;8.40;7.60;;;8.20;99.90;;;;;;5091480;28;20017;-74
2022/09/24 03:15:29;;;;;;;8.07;7.32;;;8.20;99.90;;;;;;5090470;28;20027;-74
2022/09/24 03:17:55;;;;;;;10.30;8.65;;;8.10;99.90;;;;;;5071247;28;20032;-74
2022/09/24 03:20:20;;;;;;;10.80;9.60;;;7.90;99.90;;;;;;5053438;28;20028;-74
2022/09/24 03:22:50;;;;;;;11.95;9.18;;;7.70;99.90;;;;;;5072086;28;20016;-74
2022/09/24 03:25:16;;;;;;;10.52;8.70;;;7.50;99.90;;;;;;5054654;28;20024;-74
2022/09/24 03:27:41;;;;;;;8.48;7.63;;;7.70;99.90;;;;;;5053169;28;20052;-74
2022/09/24 03:32:52;;;;;;;9.77;8.23;;;7.90;99.90;;;;;;5071683;28;20573;-74
2022/09/24 03:35:18;;;;;;;10.55;7.70;;;8.10;99.90;;;;;;5053040;28;20115;-73
2022/09/24 03:37:45;;;;;;;8.40;7.60;;;8.10;99.90;;;;;;5070902;28;20060;-74
2022/09/24 03:40:10;;;;;;;9.98;7.95;;;8.20;99.90;;;;;;5071062;28;20028;-74
2022/09/24 03:42:36;;;;;;;8.73;7.93;;;8.20;99.90;;;;;;5071108;28;20020;-74
2022/09/24 03:45:02;;;;;;;9.15;8.18;;;8.30;99.90;;;;;;5072804;28;20024;-74
2022/09/24 03:47:30;;;;;;;10.73;8.75;;;8.10;99.90;;;;;;5074610;28;20078;-73
2022/09/24 03:49:55;;;;;;;8.75;7.85;;;8.00;99.90;;;;;;5074825;28;20012;-74
2022/09/24 03:52:21;;;;;;;10.65;9.00;;;8.10;99.90;;;;;;5056771;28;20016;-73
2022/09/24 03:54:47;;;;;;;10.23;9.20;;;8.10;99.90;;;;;;5079823;28;20035;-73
2022/09/24 03:57:13;;;;;;;8.85;7.95;;;8.10;99.90;;;;;;5074488;28;20128;-73
2022/09/24 03:59:40;;;;;;;8.90;8.10;;;8.10;99.90;;;;;;5074727;28;20020;-73
2022/09/24 04:02:06;;;;;;;8.50;7.65;;;8.10;99.90;;;;;;5074691;28;20016;-73
2022/09/24 04:04:32;;;;;;;8.65;7.80;;;8.20;99.90;;;;;;5081735;28;20032;-73
2022/09/24 04:06:58;;;;;;;8.40;7.65;;;8.20;99.90;;;;;;5094382;28;20040;-74
2022/09/24 04:09:24;;;;;;;9.48;8.60;;;8.30;99.90;;;;;;5094911;28;20024;-72
2022/09/24 04:11:51;;;;;;;10.15;8.13;;;8.30;99.90;;;;;;5094807;28;20028;-74
2022/09/24 04:14:17;;;;;;;10.13;8.98;;;8.30;99.90;;;;;;5094712;28;20024;-73
2022/09/24 04:16:44;;;;;;;9.60;8.60;;;7.90;99.90;;;;;;5094679;28;20076;-74
2022/09/24 04:19:10;;;;;;;8.25;7.47;;;7.70;99.90;;;;;;5094425;28;20016;-74
2022/09/24 04:21:36;;;;;;;10.98;7.90;;;7.90;99.90;;;;;;5094516;28;20420;-73
2022/09/24 04:24:03;;;;;;;10.13;8.82;;;8.00;99.90;;;;;;5094776;28;20032;-73
2022/09/24 04:26:28;;;;;;;9.63;8.52;;;8.20;99.90;;;;;;5094410;28;20023;-73
2022/09/24 04:28:54;;;;;;;7.50;6.68;;;7.90;99.90;;;;;;5094197;28;20036;-74
2022/09/24 04:31:20;;;;;;;8.80;7.53;;;8.10;99.90;;;;;;5076563;28;20030;-73
2022/09/24 04:33:45;;;;;;;8.30;7.50;;;8.30;99.90;;;;;;5076205;28;20020;-73
2022/09/24 04:36:11;;;;;;;9.30;8.48;;;8.40;99.90;;;;;;5080772;28;20020;-73
2022/09/24 04:38:36;;;;;;;9.18;8.38;;;8.50;99.90;;;;;;5073752;28;20037;-73
2022/09/24 04:41:06;;;;;;;148.43;104.25;;;8.40;99.90;;;;;;5074058;28;20036;-73
2022/09/24 04:43:32;;;;;;;22.73;18.40;;;8.10;99.90;;;;;;5055594;28;20032;-72
2022/09/24 04:45:58;;;;;;;14.32;12.82;;;8.10;99.90;;;;;;5073656;28;20024;-72
2022/09/24 04:48:24;;;;;;;28.58;22.48;;;8.00;99.90;;;;;;5055752;28;20032;-72
2022/09/24 04:50:49;;;;;;;53.60;40.30;;;8.10;99.90;;;;;;5074816;28;20032;-72
2022/09/24 04:53:16;;;;;;;23.95;18.67;;;8.20;99.90;;;;;;5073740;28;20028;-73
2022/09/24 04:55:41;;;;;;;14.25;12.77;;;8.30;99.90;;;;;;5055082;28;20573;-72
2022/09/24 04:58:07;;;;;;;12.65;11.45;;;8.10;99.90;;;;;;5073273;28;20031;-72
2022/09/24 05:00:33;;;;;;;12.10;10.40;;;8.10;99.90;;;;;;5075671;28;20028;-72
2022/09/24 05:03:02;;;;;;;15.70;13.90;;;8.00;99.90;;;;;;5081769;28;20031;-72
2022/09/24 05:05:28;;;;;;;32.70;29.50;;;8.10;99.90;;;;;;5079051;28;20029;-73
2022/09/24 05:07:57;;;;;;;31.67;28.35;;;8.40;99.90;;;;;;5081056;28;20024;-73
2022/09/24 05:10:24;;;;;;;14.02;12.55;;;8.50;99.90;;;;;;5092349;28;20019;-72
2022/09/24 05:12:49;;;;;;;9.75;8.50;;;8.50;99.90;;;;;;5073614;28;20021;-72
2022/09/24 05:15:15;;;;;;;9.40;8.10;;;8.50;99.90;;;;;;5073418;28;20035;-72
2022/09/24 05:17:40;;;;;;;9.27;7.43;;;8.60;99.90;;;;;;5073001;28;20028;-73
2022/09/24 05:20:10;;;;;;;8.43;7.68;;;8.60;99.90;;;;;;5048432;28;20033;-72
2022/09/24 05:22:39;;;;;;;11.35;8.80;;;8.60;99.90;;;;;;5093490;28;20027;-72
2022/09/24 05:25:05;;;;;;;8.75;7.95;;;8.60;99.90;;;;;;5093359;28;20094;-72
2022/09/24 05:27:31;;;;;;;9.60;8.70;;;8.60;99.90;;;;;;5093035;28;20028;-72
2022/09/24 05:29:56;;;;;;;8.55;7.85;;;8.50;99.90;;;;;;5093320;28;20020;-73
2022/09/24 05:32:22;;;;;;;8.52;7.60;;;8.60;99.90;;;;;;5093175;28;20075;-72
2022/09/24 05:34:49;;;;;;;9.23;8.32;;;8.70;99.90;;;;;;5091306;28;20016;-73
2022/09/24 05:37:15;;;;;;;8.20;7.50;;;8.70;99.90;;;;;;5072665;28;20025;-73
2022/09/24 05:39:41;;;;;;;9.98;7.72;;;8.80;99.90;;;;;;5072894;28;20054;-72
2022/09/24 05:42:09;;;;;;;9.10;7.97;;;8.80;99.90;;;;;;5054912;28;20485;-72
2022/09/24 05:44:36;;;;;;;8.85;8.05;;;8.70;99.90;;;;;;5072747;28;20032;-72
2022/09/24 05:47:01;;;;;;;9.20;8.10;;;8.60;99.90;;;;;;5072291;28;20024;-72
2022/09/24 05:49:27;;;;;;;9.32;8.43;;;8.70;99.90;;;;;;5072632;28;20394;-72
2022/09/24 05:51:52;;;;;;;8.80;7.70;;;8.80;99.90;;;;;;5072670;28;20029;-72
2022/09/24 05:54:18;;;;;;;8.35;7.65;;;8.90;99.90;;;;;;5072358;28;20016;-73
2022/09/24 05:56:44;;;;;;;8.13;7.38;;;8.90;99.90;;;;;;5072486;28;20044;-72
2022/09/24 05:59:10;;;;;;;8.27;7.57;;;9.00;99.90;;;;;;5072217;28;20028;-72
2022/09/24 06:01:36;;;;;;;9.07;8.18;;;9.00;99.90;;;;;;5073208;28;20478;-73
2022/09/24 06:04:02;;;;;;;8.80;7.57;;;9.00;99.90;;;;;;5056673;28;20039;-73
2022/09/24 06:06:28;;;;;;;9.18;8.25;;;8.90;99.90;;;;;;5060862;28;20032;-73
2022/09/24 06:08:54;;;;;;;9.40;8.50;;;8.90;99.90;;;;;;5087246;28;20032;-73
2022/09/24 06:11:23;;;;;;;9.13;8.27;;;8.80;99.90;;;;;;5092555;28;20020;-72
2022/09/24 06:13:50;;;;;;;10.25;8.75;;;8.90;99.90;;;;;;5092430;28;20016;-72
2022/09/24 06:16:16;;;;;;;9.70;8.57;;;8.90;99.90;;;;;;5065325;28;20024;-72
2022/09/24 06:18:43;;;;;;;9.55;8.48;;;9.00;99.90;;;;;;5071860;28;20024;-73
2022/09/24 06:21:13;;;;;;;9.65;8.73;;;9.20;99.90;;;;;;5072082;28;20044;-73
2022/09/24 06:23:39;;;;;;;8.55;7.72;;;9.30;99.90;;;;;;5054067;28;20078;-73
2022/09/24 06:26:08;;;;;;;9.20;8.35;;;9.20;99.90;;;;;;5054191;28;20024;-73
2022/09/24 06:28:34;;;;;;;9.60;8.65;;;9.30;99.90;;;;;;5071587;28;20020;-73
2022/09/24 06:31:00;;;;;;;9.27;8.38;;;9.20;99.90;;;;;;5061299;28;20024;-72
2022/09/24 06:33:26;;;;;;;9.63;8.63;;;9.10;99.90;;;;;;5084028;28;20106;-72
2022/09/24 06:35:52;;;;;;;9.75;8.63;;;9.00;99.90;;;;;;5072238;28;20074;-73
2022/09/24 06:38:18;;;;;;;9.48;8.55;;;9.10;99.90;;;;;;5074880;28;20036;-73
2022/09/24 06:40:47;;;;;;;10.98;9.10;;;9.20;99.90;;;;;;5085334;28;20468;-73
2022/09/24 06:43:14;;;;;;;9.70;8.35;;;9.20;99.90;;;;;;5059171;28;20032;-73
2022/09/24 06:45:43;;;;;;;8.68;7.88;;;9.30;99.90;;;;;;5079455;28;20478;-72
2022/09/24 06:48:11;;;;;;;9.93;8.88;;;9.50;99.90;;;;;;5083432;28;20097;-72
2022/09/24 06:50:43;;;;;;;9.32;8.30;;;9.60;99.90;;;;;;5082154;28;20488;-72
2022/09/24 06:53:11;;;;;;;10.93;8.30;;;9.80;99.90;;;;;;5071375;28;20027;-72
2022/09/24 06:55:37;;;;;;;10.25;8.75;;;9.70;99.90;;;;;;5059546;28;20035;-73
2022/09/24 06:58:14;;;;;;;9.43;8.48;;;9.80;99.90;;;;;;5083518;28;20040;-72
2022/09/24 07:00:41;;;;;;;9.73;8.02;;;9.90;99.90;;;;;;5064304;28;20170;-73
2022/09/24 07:03:14;;;;;;;9.60;8.52;;;10.20;99.90;;;;;;5082502;28;20028;-73
2022/09/24 07:05:39;;;;;;;8.80;7.82;;;10.40;99.90;;;;;;5085727;28;20039;-73
2022/09/24 07:08:05;;;;;;;8.90;7.97;;;10.40;99.90;;;;;;5081079;28;20028;-73
2022/09/24 07:10:31;;;;;;;8.27;7.57;;;10.50;99.90;;;;;;5083545;28;20020;-73
2022/09/24 07:12:56;;;;;;;8.68;7.55;;;10.60;99.90;;;;;;5070068;28;20048;-73
2022/09/24 07:15:22;;;;;;;8.02;7.00;;;10.70;99.90;;;;;;5056197;28;20032;-73
2022/09/24 07:17:47;;;;;;;7.63;6.88;;;10.80;99.90;;;;;;5062848;28;20029;-73
2022/09/24 07:20:13;;;;;;;8.32;7.00;;;10.90;99.90;;;;;;5087784;28;20729;-72
2022/09/24 07:22:39;;;;;;;7.82;7.03;;;10.90;99.90;;;;;;5085841;28;20021;-73
2022/09/24 07:25:08;;;;;;;9.02;7.63;;;10.90;99.90;;;;;;5073951;28;20420;-73
2022/09/24 07:27:33;;;;;;;8.77;7.72;;;11.00;99.90;;;;;;5073679;28;20063;-71
2022/09/24 07:29:59;;;;;;;8.20;7.40;;;10.90;99.90;;;;;;5089366;28;20052;-73
2022/09/24 07:32:25;;;;;;;7.90;7.20;;;11.00;99.90;;;;;;5085751;28;20024;-73
2022/09/24 07:34:53;;;;;;;8.63;7.82;;;10.90;99.90;;;;;;5087183;28;20476;-72
2022/09/24 07:37:18;;;;;;;9.95;7.85;;;10.80;99.90;;;;;;5082655;28;20402;-72
2022/09/24 07:39:44;;;;;;;8.85;8.05;;;10.60;99.90;;;;;;5091585;28;20077;-72
2022/09/24 07:42:10;;;;;;;8.57;7.75;;;10.70;99.90;;;;;;5073690;28;20565;-73
2022/09/24 07:44:36;;;;;;;8.18;7.35;;;10.80;99.90;;;;;;5075717;28;20031;-73
2022/09/24 07:47:02;;;;;;;8.55;7.60;;;10.70;99.90;;;;;;5094051;28;20504;-73
2022/09/24 07:49:31;;;;;;;9.07;7.53;;;11.00;99.90;;;;;;5079190;28;20024;-72
2022/09/24 07:51:56;;;;;;;9.40;6.93;;;11.10;99.90;;;;;;5082509;28;20020;-73
2022/09/24 07:54:22;;;;;;;10.45;7.57;;;11.20;99.90;;;;;;5059852;28;20021;-73
2022/09/24 07:56:47;;;;;;;8.55;7.75;;;11.20;99.90;;;;;;5073367;28;20508;-73
2022/09/24 07:59:13;;;;;;;9.23;7.70;;;11.40;99.90;;;;;;5086795;28;20429;-72
2022/09/24 08:01:39;;;;;;;8.32;7.50;;;11.40;99.90;;;;;;5082453;28;20371;-72
2022/09/24 08:04:06;;;;;;;8.57;7.68;;;11.60;99.90;;;;;;5059816;28;20177;-73
2022/09/24 08:06:34;;;;;;;8.18;7.38;;;11.70;99.90;;;;;;5073120;28;20028;-73
2022/09/24 08:09:00;;;;;;;9.90;8.35;;;11.80;99.90;;;;;;5070830;28;20032;-73
2022/09/24 08:11:25;;;;;;;9.40;7.68;;;11.80;99.90;;;;;;5084338;28;20154;-73
2022/09/24 08:13:51;;;;;;;9.73;7.70;;;11.90;99.90;;;;;;5086774;28;20024;-71
2022/09/24 08:16:18;;;;;;;9.68;7.55;;;12.00;99.90;;;;;;5064008;28;20016;-73
2022/09/24 08:18:44;;;;;;;8.80;7.78;;;12.10;99.90;;;;;;5058955;28;20028;-72
2022/09/24 08:21:12;;;;;;;8.15;7.35;;;12.00;99.90;;;;;;5072412;28;20037;-73
2022/09/24 08:23:38;;;;;;;9.13;7.50;;;12.10;99.90;;;;;;5087966;28;20035;-73
2022/09/24 08:26:05;;;;;;;7.20;6.53;;;12.20;99.90;;;;;;5093100;28;20031;-73
2022/09/24 08:28:30;;;;;;;8.38;7.57;;;12.40;99.90;;;;;;5092740;28;20789;-72
2022/09/24 08:31:01;;;;;;;7.80;6.95;;;12.30;99.90;;;;;;5083330;28;20104;-73
2022/09/24 08:33:27;;;;;;;7.95;7.15;;;12.50;99.90;;;;;;5071646;28;20389;-73
2022/09/24 08:35:53;;;;;;;7.97;6.00;;;12.50;99.90;;;;;;5092944;28;20035;-73
2022/09/24 08:38:21;;;;;;;6.45;5.82;;;12.60;99.90;;;;;;5092689;28;20024;-73
2022/09/24 08:41:10;;;;;;;7.03;6.32;;;12.60;99.90;;;;;;5063282;28;20094;-73
2022/09/24 08:43:49;;;;;;;6.85;6.15;;;12.80;99.90;;;;;;5077519;28;20028;-73
2022/09/24 08:49:38;;;;;;;6.40;5.70;;;13.00;99.90;;;;;;5088465;28;20081;-73
2022/09/24 08:52:45;;;;;;;7.35;6.00;;;13.10;99.90;;;;;;5082215;28;20032;-73
2022/09/24 08:55:34;;;;;;;6.53;5.93;;;13.20;99.90;;;;;;5070702;28;20495;-73
2022/09/24 08:58:24;;;;;;;7.50;6.00;;;13.10;99.90;;;;;;5078725;28;20051;-73
2022/09/24 09:01:02;;;;;;;7.43;6.20;;;13.20;99.90;;;;;;5078846;28;20017;-72
2022/09/24 09:04:04;;;;;;;7.53;6.35;;;13.30;99.90;;;;;;5063870;28;20034;-72
2022/09/24 09:06:53;;;;;;;8.18;6.30;;;13.30;99.90;;;;;;5081565;28;20558;-72
2022/09/24 09:09:50;;;;;;;8.57;6.20;;;13.30;99.90;;;;;;5077066;28;20082;-73
2022/09/24 09:12:22;;;;;;;;;;;13.30;99.90;;;;;;5054931;28;20037;-74
2022/09/24 09:15:02;;;;;;;7.00;6.30;;;13.40;99.90;;;;;;5069065;28;20362;-72
2022/09/24 09:17:48;;;;;;;9.57;6.70;;;13.50;99.90;;;;;;5072460;28;20063;-72
2022/09/24 09:20:26;;;;;;;7.45;6.75;;;13.60;99.90;;;;;;5073970;28;20526;-72
2022/09/24 09:22:52;;;;;;;7.72;6.18;;;13.70;99.90;;;;;;5082116;28;20051;-72
2022/09/24 09:25:28;;;;;;;8.85;6.55;;;13.80;99.90;;;;;;5057340;28;20024;-72
2022/09/24 09:28:06;;;;;;;9.85;6.45;;;13.90;99.90;;;;;;5063001;28;20486;-73
2022/09/24 09:30:43;;;;;;;10.20;6.85;;;14.20;99.90;;;;;;5086933;28;20033;-73
2022/09/24 09:33:22;;;;;;;8.50;6.30;;;14.10;99.90;;;;;;5073269;28;20044;-73
2022/09/24 09:36:02;;;;;;;8.65;6.60;;;14.10;99.90;;;;;;5083211;28;20059;-72
2022/09/24 09:38:48;;;;;;;8.85;6.80;;;14.20;99.90;;;;;;5092921;28;20031;-73
2022/09/24 09:41:37;;;;;;;8.27;6.22;;;14.40;99.90;;;;;;5093229;28;20028;-73
2022/09/24 09:44:29;;;;;;;10.88;6.43;;;14.40;99.90;;;;;;5063109;28;20116;-73
2022/09/24 09:47:17;;;;;;;6.60;5.90;;;14.50;99.90;;;;;;5068802;28;20075;-73
2022/09/24 09:49:44;;;;;;;7.50;6.80;;;14.50;99.90;;;;;;5076490;28;20043;-73
2022/09/24 09:52:19;;;;;;;8.05;6.13;;;14.60;99.90;;;;;;5083673;28;20428;-73
2022/09/24 09:54:45;;;;;;;8.68;6.93;;;14.70;99.90;;;;;;5092905;28;20020;-73
2022/09/24 09:57:18;;;;;;;12.00;6.80;;;14.80;99.90;;;;;;5073478;28;20079;-73
2022/09/24 09:59:51;;;;;;;8.40;6.22;;;14.70;99.90;;;;;;5075470;28;20033;-73
2022/09/24 10:02:29;;;;;;;10.40;5.80;;;14.90;99.90;;;;;;5077085;28;20024;-73
2022/09/24 10:04:58;;;;;;;6.72;6.00;;;15.10;99.90;;;;;;5074611;28;20055;-72
2022/09/24 10:07:24;;;;;;;8.13;5.28;;;15.30;99.90;;;;;;5092098;28;20100;-71
2022/09/24 10:10:11;;;;;;;26.77;16.27;;;15.40;99.90;;;;;;5089787;28;20490;-73
2022/09/24 10:12:37;;;;;;;8.35;7.38;;;15.40;99.90;;;;;;5072171;28;20066;-73
2022/09/24 10:15:19;;;;;;;7.20;6.05;;;15.50;99.90;;;;;;5083505;28;20020;-74
2022/09/24 10:17:48;;;;;;;8.27;5.85;;;15.60;99.90;;;;;;5091477;28;20032;-73
2022/09/24 10:20:28;;;;;;;7.38;5.55;;;15.80;99.90;;;;;;5091288;28;20042;-73
2022/09/24 10:23:00;;;;;;;6.40;5.30;;;15.70;99.90;;;;;;5091278;28;20028;-73
2022/09/24 10:25:28;;;;;;;7.25;5.13;;;15.70;99.90;;;;;;5073250;28;20025;-73
2022/09/24 10:30:32;;;;;;;6.80;5.15;;;15.70;99.90;;;;;;5071212;28;20112;-73
2022/09/24 10:31:03;;;;;;;7.43;5.93;;;15.80;99.90;;;;;;5071978;28;20099;-73
2022/09/24 10:33:38;;;;;;;8.18;5.65;;;15.90;99.90;;;;;;5071752;28;20086;-73
2022/09/24 10:36:07;;;;;;;7.68;5.55;;;16.00;99.90;;;;;;5084230;28;20047;-73
2022/09/24 10:38:33;;;;;;;6.93;6.22;;;16.10;99.90;;;;;;5091898;28;20719;-73
2022/09/24 10:41:00;;;;;;;9.35;5.72;;;16.10;99.90;;;;;;5087407;28;20028;-73
2022/09/24 10:43:26;;;;;;;6.28;5.35;;;16.20;99.90;;;;;;5076858;28;20024;-73
2022/09/24 10:46:24;;;;;;;8.48;5.38;;;16.20;99.90;;;;;;5071435;28;20081;-73
2022/09/24 10:49:16;;;;;;;7.45;6.43;;;16.30;99.90;;;;;;5063706;28;20070;-73
2022/09/24 10:52:06;;;;;;;7.63;6.15;;;16.20;99.90;;;;;;5071776;28;20019;-73
2022/09/24 10:55:05;;;;;;;6.35;5.75;;;16.10;99.90;;;;;;5075395;28;20117;-73
2022/09/24 10:57:40;;;;;;;9.15;5.72;;;16.20;99.90;;;;;;5070890;28;20077;-73
2022/09/24 11:00:18;;;;;;;9.27;6.00;;;16.40;99.90;;;;;;5071102;28;20424;-73
2022/09/24 11:03:14;;;;;;;7.00;5.63;;;16.60;99.90;;;;;;5070406;28;20052;-73
2022/09/24 11:06:01;;;;;;;8.02;6.00;;;16.50;99.90;;;;;;5070784;28;20078;-73
2022/09/24 11:08:32;;;;;;;;;;;16.60;99.90;;;;;;5053304;28;20025;-73
2022/09/24 11:11:13;;;;;;;8.75;7.07;;;16.50;99.90;;;;;;5076500;28;20360;-73
2022/09/24 11:14:18;;;;;;;8.93;6.25;;;16.50;99.90;;;;;;5078027;28;20040;-73
2022/09/24 11:17:03;;;;;;;6.97;6.28;;;16.60;99.90;;;;;;5071502;28;20025;-73
2022/09/24 11:19:47;;;;;;;8.40;5.25;;;16.70;99.90;;;;;;5071447;28;20106;-73
2022/09/24 11:22:50;;;;;;;10.05;5.15;;;16.80;99.90;;;;;;5071301;28;20028;-73
2022/09/24 11:25:41;;;;;;;8.95;5.32;;;16.90;99.90;;;;;;5073821;28;20096;-73
2022/09/24 11:28:36;;;;;;;7.00;5.97;;;16.80;99.90;;;;;;5091468;28;20020;-73
2022/09/24 11:31:37;;;;;;;6.30;5.32;;;16.80;99.90;;;;;;5053434;28;20048;-72
2022/09/24 11:34:26;;;;;;;5.90;5.03;;;17.10;99.90;;;;;;5077793;28;20112;-74
2022/09/24 11:37:12;;;;;;;5.43;4.93;;;17.30;99.90;;;;;;5082845;28;20386;-73
2022/09/24 11:39:56;;;;;;;;;;;17.40;99.90;;;;;;5076148;28;20021;-73
2022/09/24 11:42:30;;;;;;;7.07;5.13;;;17.50;99.90;;;;;;5051280;28;19989;-73
2022/09/24 11:45:15;;;;;;;7.47;5.38;;;17.50;99.90;;;;;;5070306;28;20486;-73
2022/09/24 11:48:09;;;;;;;8.75;5.45;;;17.50;99.90;;;;;;5070600;28;20688;-73
2022/09/24 11:50:53;;;;;;;6.18;4.78;;;17.40;99.90;;;;;;5072773;28;20098;-73
2022/09/24 11:53:40;;;;;;;6.45;5.40;;;17.20;99.90;;;;;;5067195;28;20474;-73
2022/09/24 11:56:21;;;;;;;7.82;6.15;;;17.60;99.90;;;;;;5088618;28;20480;-72
2022/09/24 11:59:15;;;;;;;7.80;5.85;;;18.10;99.90;;;;;;5072994;28;20032;-73
2022/09/24 12:01:49;;;;;;;5.97;5.28;;;18.00;99.90;;;;;;5091458;28;20032;-73
2022/09/24 12:04:20;;;;;;;8.48;5.72;;;17.80;99.90;;;;;;5091266;28;20541;-73
2022/09/24 12:06:53;;;;;;;6.70;5.60;;;17.70;99.90;;;;;;5075791;28;20036;-74
2022/09/24 12:09:41;;;;;;;7.22;6.53;;;17.80;99.90;;;;;;5094865;28;20116;-72
2022/09/24 12:12:23;;;;;;;7.57;6.03;;;17.60;99.90;;;;;;5079119;28;20076;-73
2022/09/24 12:15:18;;;;;;;10.27;5.55;;;17.60;99.90;;;;;;5056772;28;20114;-73
2022/09/24 12:18:05;;;;;;;7.35;5.70;;;17.30;99.90;;;;;;5056403;28;20028;-73
2022/09/24 12:20:44;;;;;;;5.70;4.55;;;17.10;99.90;;;;;;5074361;28;20038;-73
2022/09/24 12:23:13;;;;;;;7.15;5.00;;;17.30;99.90;;;;;;5086347;28;20061;-74
2022/09/24 12:25:44;;;;;;;8.73;4.95;;;17.70;99.90;;;;;;5077486;28;20024;-74
2022/09/24 12:32:53;;;;;;;6.50;4.68;;;17.30;99.90;;;;;;5073635;28;20024;-73
2022/09/24 12:34:35;;;;;;;5.68;4.88;;;18.10;99.90;;;;;;5074425;28;20386;-73
2022/09/24 12:37:12;;;;;;;6.40;4.63;;;18.40;99.90;;;;;;5067661;28;20381;-74
2022/09/24 12:39:56;;;;;;;7.28;4.40;;;18.70;99.90;;;;;;5075413;28;20467;-73
2022/09/24 12:42:26;;;;;;;5.53;4.88;;;18.70;99.90;;;;;;5094417;28;20081;-73
2022/09/24 12:44:56;;;;;;;6.72;5.15;;;19.30;99.90;;;;;;5076439;28;20485;-73
2022/09/24 12:47:25;;;;;;;6.30;5.38;;;19.00;99.90;;;;;;5085442;28;20028;-74
2022/09/24 12:49:56;;;;;;;7.70;5.03;;;18.70;99.90;;;;;;5075925;28;20054;-74
2022/09/24 12:52:38;;;;;;;7.47;4.90;;;18.70;99.90;;;;;;5075968;28;20512;-73
2022/09/24 12:55:04;;;;;;;7.88;5.55;;;18.60;99.90;;;;;;5094237;28;20094;-74
2022/09/24 12:57:41;;;;;;;5.82;5.10;;;18.10;99.90;;;;;;5093747;28;20039;-74
2022/09/24 13:00:45;;;;;;;6.05;4.72;;;18.10;99.90;;;;;;5094106;28;20024;-74
2022/09/24 13:03:37;;;;;;;6.47;5.22;;;19.30;99.90;;;;;;5085613;28;20060;-73
2022/09/24 13:06:18;;;;;;;5.43;4.20;;;19.40;99.90;;;;;;5078499;28;20031;-74
2022/09/24 13:08:43;;;;;;;5.90;4.93;;;20.00;99.90;;;;;;5093348;28;20711;-74
2022/09/24 13:11:32;;;;;;;5.90;4.80;;;19.90;99.90;;;;;;5076649;28;20040;-74
2022/09/24 13:14:14;;;;;;;7.35;4.63;;;19.10;99.90;;;;;;5073617;28;20008;-74
2022/09/24 13:16:42;;;;;;;5.43;4.30;;;18.30;99.90;;;;;;5073827;28;20094;-74
2022/09/24 13:19:32;;;;;;;7.22;5.25;;;19.80;99.90;;;;;;5091701;28;20024;-74
2022/09/24 13:22:00;;;;;;;6.55;5.63;;;20.20;99.90;;;;;;5071722;28;20390;-73
2022/09/24 13:24:36;;;;;;;7.45;5.43;;;20.00;99.90;;;;;;5084594;28;20020;-74
2022/09/24 13:27:30;;;;;;;5.95;5.43;;;19.60;99.90;;;;;;5077092;28;20122;-74
2022/09/24 13:30:21;;;;;;;9.30;5.78;;;19.60;99.90;;;;;;5066038;28;20067;-74
2022/09/24 13:32:57;;;;;;;6.80;5.82;;;20.00;99.90;;;;;;5073064;28;20521;-73